sensor_id;sensor_type;location;lat;lon;timestamp;P1;durP1;ratioP1;P2;durP2;ratioP2
24137;SDS011;17947;50.672;6.076;2023-03-31T00:00:56;1.60;;;0.73;;
24137;SDS011;17947;50.672;6.076;2023-03-31T00:03:24;1.20;;;0.80;;
24137;SDS011;17947;50.672;6.076;2023-03-31T00:05:54;0.75;;;0.55;;
24137;SDS011;17947;50.672;6.076;2023-03-31T00:08:22;0.60;;;0.50;;
24137;SDS011;17947;50.672;6.076;2023-03-31T00:10:48;1.02;;;0.60;;
24137;SDS011;17947;50.672;6.076;2023-03-31T00:13:14;2.88;;;0.80;;
24137;SDS011;17947;50.672;6.076;2023-03-31T00:15:40;1.38;;;0.80;;
24137;SDS011;17947;50.672;6.076;2023-03-31T00:18:06;0.75;;;0.65;;
24137;SDS011;17947;50.672;6.076;2023-03-31T00:20:32;1.13;;;0.57;;
24137;SDS011;17947;50.672;6.076;2023-03-31T00:23:01;0.70;;;0.70;;
24137;SDS011;17947;50.672;6.076;2023-03-31T00:25:30;1.67;;;0.60;;
24137;SDS011;17947;50.672;6.076;2023-03-31T00:27:56;0.88;;;0.47;;
24137;SDS011;17947;50.672;6.076;2023-03-31T00:30:22;1.10;;;0.70;;
24137;SDS011;17947;50.672;6.076;2023-03-31T00:32:48;0.85;;;0.57;;
24137;SDS011;17947;50.672;6.076;2023-03-31T00:35:15;0.70;;;0.70;;
24137;SDS011;17947;50.672;6.076;2023-03-31T00:37:41;0.70;;;0.60;;
24137;SDS011;17947;50.672;6.076;2023-03-31T00:40:07;0.60;;;0.60;;
24137;SDS011;17947;50.672;6.076;2023-03-31T00:42:38;0.63;;;0.63;;
24137;SDS011;17947;50.672;6.076;2023-03-31T00:47:41;0.82;;;0.52;;
24137;SDS011;17947;50.672;6.076;2023-03-31T00:50:19;2.03;;;0.65;;
24137;SDS011;17947;50.672;6.076;2023-03-31T00:52:46;1.40;;;0.90;;
24137;SDS011;17947;50.672;6.076;2023-03-31T00:55:17;0.93;;;0.80;;
24137;SDS011;17947;50.672;6.076;2023-03-31T00:57:44;0.75;;;0.73;;
24137;SDS011;17947;50.672;6.076;2023-03-31T01:00:12;0.60;;;0.60;;
24137;SDS011;17947;50.672;6.076;2023-03-31T01:02:42;1.13;;;0.50;;
24137;SDS011;17947;50.672;6.076;2023-03-31T01:05:16;1.45;;;0.70;;
24137;SDS011;17947;50.672;6.076;2023-03-31T01:07:44;0.93;;;0.60;;
24137;SDS011;17947;50.672;6.076;2023-03-31T01:10:11;1.50;;;0.60;;
24137;SDS011;17947;50.672;6.076;2023-03-31T01:12:39;0.77;;;0.50;;
24137;SDS011;17947;50.672;6.076;2023-03-31T01:15:06;1.55;;;0.60;;
24137;SDS011;17947;50.672;6.076;2023-03-31T01:17:32;0.93;;;0.43;;
24137;SDS011;17947;50.672;6.076;2023-03-31T01:25:35;0.88;;;0.55;;
24137;SDS011;17947;50.672;6.076;2023-03-31T01:41:37;0.60;;;0.40;;
24137;SDS011;17947;50.672;6.076;2023-03-31T01:44:12;0.73;;;0.52;;
24137;SDS011;17947;50.672;6.076;2023-03-31T01:46:49;0.98;;;0.70;;
24137;SDS011;17947;50.672;6.076;2023-03-31T01:49:19;1.80;;;0.85;;
24137;SDS011;17947;50.672;6.076;2023-03-31T01:54:18;1.10;;;0.60;;
24137;SDS011;17947;50.672;6.076;2023-03-31T01:56:45;1.13;;;0.70;;
24137;SDS011;17947;50.672;6.076;2023-03-31T01:59:16;1.00;;;0.68;;
24137;SDS011;17947;50.672;6.076;2023-03-31T02:01:52;0.93;;;0.50;;
24137;SDS011;17947;50.672;6.076;2023-03-31T02:04:45;2.15;;;0.65;;
24137;SDS011;17947;50.672;6.076;2023-03-31T02:07:09;0.68;;;0.57;;
24137;SDS011;17947;50.672;6.076;2023-03-31T02:09:39;1.65;;;0.70;;
24137;SDS011;17947;50.672;6.076;2023-03-31T02:12:07;0.75;;;0.50;;
24137;SDS011;17947;50.672;6.076;2023-03-31T02:14:34;1.30;;;0.50;;
24137;SDS011;17947;50.672;6.076;2023-03-31T02:17:01;0.90;;;0.70;;
24137;SDS011;17947;50.672;6.076;2023-03-31T02:19:30;0.50;;;0.50;;
24137;SDS011;17947;50.672;6.076;2023-03-31T02:21:57;1.27;;;0.60;;
24137;SDS011;17947;50.672;6.076;2023-03-31T02:24:25;0.60;;;0.50;;
24137;SDS011;17947;50.672;6.076;2023-03-31T02:26:54;1.13;;;0.60;;
24137;SDS011;17947;50.672;6.076;2023-03-31T02:34:13;0.63;;;0.60;;
24137;SDS011;17947;50.672;6.076;2023-03-31T02:36:39;0.85;;;0.70;;
24137;SDS011;17947;50.672;6.076;2023-03-31T02:39:07;0.50;;;0.50;;
24137;SDS011;17947;50.672;6.076;2023-03-31T02:41:34;0.73;;;0.55;;
24137;SDS011;17947;50.672;6.076;2023-03-31T02:44:01;0.75;;;0.60;;
24137;SDS011;17947;50.672;6.076;2023-03-31T02:46:27;0.80;;;0.47;;
24137;SDS011;17947;50.672;6.076;2023-03-31T02:48:54;0.70;;;0.60;;
24137;SDS011;17947;50.672;6.076;2023-03-31T02:53:59;1.98;;;0.60;;
24137;SDS011;17947;50.672;6.076;2023-03-31T03:07:15;1.45;;;0.55;;
24137;SDS011;17947;50.672;6.076;2023-03-31T03:15:05;0.50;;;0.40;;
24137;SDS011;17947;50.672;6.076;2023-03-31T03:20:02;1.50;;;0.80;;
24137;SDS011;17947;50.672;6.076;2023-03-31T03:22:32;0.85;;;0.50;;
24137;SDS011;17947;50.672;6.076;2023-03-31T03:24:58;1.05;;;0.65;;
24137;SDS011;17947;50.672;6.076;2023-03-31T03:27:24;0.57;;;0.52;;
24137;SDS011;17947;50.672;6.076;2023-03-31T03:29:50;0.50;;;0.50;;
24137;SDS011;17947;50.672;6.076;2023-03-31T03:32:16;0.90;;;0.65;;
24137;SDS011;17947;50.672;6.076;2023-03-31T03:34:42;0.50;;;0.40;;
24137;SDS011;17947;50.672;6.076;2023-03-31T03:37:08;0.40;;;0.30;;
24137;SDS011;17947;50.672;6.076;2023-03-31T03:39:34;0.40;;;0.40;;
24137;SDS011;17947;50.672;6.076;2023-03-31T03:42:00;0.93;;;0.57;;
24137;SDS011;17947;50.672;6.076;2023-03-31T03:44:26;0.52;;;0.32;;
24137;SDS011;17947;50.672;6.076;2023-03-31T03:46:52;1.00;;;0.63;;
24137;SDS011;17947;50.672;6.076;2023-03-31T03:49:18;1.33;;;0.55;;
24137;SDS011;17947;50.672;6.076;2023-03-31T03:51:45;0.47;;;0.40;;
24137;SDS011;17947;50.672;6.076;2023-03-31T03:54:11;0.40;;;0.40;;
24137;SDS011;17947;50.672;6.076;2023-03-31T03:56:37;0.40;;;0.40;;
24137;SDS011;17947;50.672;6.076;2023-03-31T03:59:03;0.60;;;0.50;;
24137;SDS011;17947;50.672;6.076;2023-03-31T04:01:29;0.60;;;0.60;;
24137;SDS011;17947;50.672;6.076;2023-03-31T04:03:55;0.65;;;0.40;;
24137;SDS011;17947;50.672;6.076;2023-03-31T04:06:21;0.60;;;0.60;;
24137;SDS011;17947;50.672;6.076;2023-03-31T04:08:47;0.50;;;0.50;;
24137;SDS011;17947;50.672;6.076;2023-03-31T04:11:14;0.98;;;0.43;;
24137;SDS011;17947;50.672;6.076;2023-03-31T04:13:44;1.10;;;0.70;;
24137;SDS011;17947;50.672;6.076;2023-03-31T04:16:10;1.17;;;0.43;;
24137;SDS011;17947;50.672;6.076;2023-03-31T04:18:36;0.40;;;0.40;;
24137;SDS011;17947;50.672;6.076;2023-03-31T04:21:07;0.50;;;0.50;;
24137;SDS011;17947;50.672;6.076;2023-03-31T04:23:36;0.57;;;0.50;;
24137;SDS011;17947;50.672;6.076;2023-03-31T04:26:09;0.68;;;0.40;;
24137;SDS011;17947;50.672;6.076;2023-03-31T04:28:36;0.65;;;0.40;;
24137;SDS011;17947;50.672;6.076;2023-03-31T04:31:03;0.60;;;0.40;;
24137;SDS011;17947;50.672;6.076;2023-03-31T04:33:33;0.30;;;0.30;;
24137;SDS011;17947;50.672;6.076;2023-03-31T04:36:03;1.05;;;0.60;;
24137;SDS011;17947;50.672;6.076;2023-03-31T04:38:31;0.50;;;0.50;;
24137;SDS011;17947;50.672;6.076;2023-03-31T04:41:00;0.52;;;0.40;;
24137;SDS011;17947;50.672;6.076;2023-03-31T04:43:26;0.88;;;0.50;;
24137;SDS011;17947;50.672;6.076;2023-03-31T04:45:52;0.75;;;0.50;;
24137;SDS011;17947;50.672;6.076;2023-03-31T04:48:18;0.85;;;0.50;;
24137;SDS011;17947;50.672;6.076;2023-03-31T04:50:45;0.40;;;0.40;;
24137;SDS011;17947;50.672;6.076;2023-03-31T04:53:11;0.30;;;0.30;;
24137;SDS011;17947;50.672;6.076;2023-03-31T04:55:37;0.68;;;0.55;;
24137;SDS011;17947;50.672;6.076;2023-03-31T04:58:03;0.50;;;0.50;;
24137;SDS011;17947;50.672;6.076;2023-03-31T05:00:29;0.50;;;0.40;;
24137;SDS011;17947;50.672;6.076;2023-03-31T05:02:55;0.60;;;0.38;;
24137;SDS011;17947;50.672;6.076;2023-03-31T05:05:21;0.30;;;0.30;;
24137;SDS011;17947;50.672;6.076;2023-03-31T05:07:47;0.30;;;0.30;;
24137;SDS011;17947;50.672;6.076;2023-03-31T05:10:13;0.40;;;0.40;;
24137;SDS011;17947;50.672;6.076;2023-03-31T05:12:39;0.75;;;0.50;;
24137;SDS011;17947;50.672;6.076;2023-03-31T05:15:06;1.23;;;0.40;;
24137;SDS011;17947;50.672;6.076;2023-03-31T05:17:33;0.63;;;0.40;;
24137;SDS011;17947;50.672;6.076;2023-03-31T05:19:59;0.47;;;0.40;;
24137;SDS011;17947;50.672;6.076;2023-03-31T05:22:25;0.35;;;0.32;;
24137;SDS011;17947;50.672;6.076;2023-03-31T05:24:52;0.55;;;0.50;;
24137;SDS011;17947;50.672;6.076;2023-03-31T05:27:18;0.35;;;0.30;;
24137;SDS011;17947;50.672;6.076;2023-03-31T05:29:46;0.50;;;0.50;;
24137;SDS011;17947;50.672;6.076;2023-03-31T05:32:12;0.30;;;0.30;;
24137;SDS011;17947;50.672;6.076;2023-03-31T05:34:38;0.73;;;0.30;;
24137;SDS011;17947;50.672;6.076;2023-03-31T05:37:04;0.70;;;0.40;;
24137;SDS011;17947;50.672;6.076;2023-03-31T05:39:30;0.45;;;0.45;;
24137;SDS011;17947;50.672;6.076;2023-03-31T05:41:57;0.88;;;0.50;;
24137;SDS011;17947;50.672;6.076;2023-03-31T05:44:23;0.40;;;0.40;;
24137;SDS011;17947;50.672;6.076;2023-03-31T05:46:51;0.30;;;0.30;;
24137;SDS011;17947;50.672;6.076;2023-03-31T05:49:17;0.45;;;0.40;;
24137;SDS011;17947;50.672;6.076;2023-03-31T05:51:43;0.47;;;0.30;;
24137;SDS011;17947;50.672;6.076;2023-03-31T05:54:09;0.30;;;0.30;;
24137;SDS011;17947;50.672;6.076;2023-03-31T05:56:35;0.30;;;0.30;;
24137;SDS011;17947;50.672;6.076;2023-03-31T05:59:02;0.60;;;0.30;;
24137;SDS011;17947;50.672;6.076;2023-03-31T06:01:28;0.50;;;0.50;;
24137;SDS011;17947;50.672;6.076;2023-03-31T06:03:54;0.43;;;0.43;;
24137;SDS011;17947;50.672;6.076;2023-03-31T06:06:20;0.40;;;0.40;;
24137;SDS011;17947;50.672;6.076;2023-03-31T06:08:47;0.30;;;0.30;;
24137;SDS011;17947;50.672;6.076;2023-03-31T06:11:14;0.95;;;0.40;;
24137;SDS011;17947;50.672;6.076;2023-03-31T06:13:40;0.70;;;0.32;;
24137;SDS011;17947;50.672;6.076;2023-03-31T06:16:08;0.40;;;0.40;;
24137;SDS011;17947;50.672;6.076;2023-03-31T06:18:35;0.40;;;0.40;;
24137;SDS011;17947;50.672;6.076;2023-03-31T06:21:01;0.30;;;0.20;;
24137;SDS011;17947;50.672;6.076;2023-03-31T06:23:27;0.60;;;0.50;;
24137;SDS011;17947;50.672;6.076;2023-03-31T06:25:53;0.40;;;0.40;;
24137;SDS011;17947;50.672;6.076;2023-03-31T06:28:24;0.40;;;0.40;;
24137;SDS011;17947;50.672;6.076;2023-03-31T06:30:50;0.40;;;0.40;;
24137;SDS011;17947;50.672;6.076;2023-03-31T06:33:16;0.55;;;0.35;;
24137;SDS011;17947;50.672;6.076;2023-03-31T06:35:42;1.33;;;0.40;;
24137;SDS011;17947;50.672;6.076;2023-03-31T06:38:08;0.30;;;0.30;;
24137;SDS011;17947;50.672;6.076;2023-03-31T06:40:34;0.38;;;0.38;;
24137;SDS011;17947;50.672;6.076;2023-03-31T06:43:00;0.50;;;0.45;;
24137;SDS011;17947;50.672;6.076;2023-03-31T06:45:26;0.35;;;0.30;;
24137;SDS011;17947;50.672;6.076;2023-03-31T06:47:52;0.40;;;0.30;;
24137;SDS011;17947;50.672;6.076;2023-03-31T06:50:18;0.50;;;0.40;;
24137;SDS011;17947;50.672;6.076;2023-03-31T06:52:44;0.60;;;0.40;;
24137;SDS011;17947;50.672;6.076;2023-03-31T06:55:10;0.32;;;0.30;;
24137;SDS011;17947;50.672;6.076;2023-03-31T06:57:37;0.40;;;0.40;;
24137;SDS011;17947;50.672;6.076;2023-03-31T07:00:03;0.30;;;0.30;;
24137;SDS011;17947;50.672;6.076;2023-03-31T07:02:31;0.50;;;0.40;;
24137;SDS011;17947;50.672;6.076;2023-03-31T07:04:57;0.50;;;0.50;;
24137;SDS011;17947;50.672;6.076;2023-03-31T07:07:23;0.25;;;0.22;;
24137;SDS011;17947;50.672;6.076;2023-03-31T07:09:49;0.43;;;0.30;;
24137;SDS011;17947;50.672;6.076;2023-03-31T07:12:15;0.88;;;0.40;;
24137;SDS011;17947;50.672;6.076;2023-03-31T07:14:41;0.60;;;0.30;;
24137;SDS011;17947;50.672;6.076;2023-03-31T07:17:07;0.38;;;0.38;;
24137;SDS011;17947;50.672;6.076;2023-03-31T07:19:33;0.52;;;0.40;;
24137;SDS011;17947;50.672;6.076;2023-03-31T07:22:02;1.08;;;0.40;;
24137;SDS011;17947;50.672;6.076;2023-03-31T07:24:30;0.30;;;0.30;;
24137;SDS011;17947;50.672;6.076;2023-03-31T07:26:56;0.40;;;0.40;;
24137;SDS011;17947;50.672;6.076;2023-03-31T07:29:22;0.40;;;0.40;;
24137;SDS011;17947;50.672;6.076;2023-03-31T07:31:48;1.65;;;0.40;;
24137;SDS011;17947;50.672;6.076;2023-03-31T07:34:14;0.30;;;0.30;;
24137;SDS011;17947;50.672;6.076;2023-03-31T07:36:41;2.92;;;0.88;;
24137;SDS011;17947;50.672;6.076;2023-03-31T07:39:07;0.93;;;0.63;;
24137;SDS011;17947;50.672;6.076;2023-03-31T07:41:33;2.38;;;0.60;;
24137;SDS011;17947;50.672;6.076;2023-03-31T07:43:59;1.45;;;0.50;;
24137;SDS011;17947;50.672;6.076;2023-03-31T07:46:27;2.17;;;0.60;;
24137;SDS011;17947;50.672;6.076;2023-03-31T07:48:54;1.90;;;0.60;;
24137;SDS011;17947;50.672;6.076;2023-03-31T07:51:22;1.27;;;0.60;;
24137;SDS011;17947;50.672;6.076;2023-03-31T07:53:48;1.83;;;0.60;;
24137;SDS011;17947;50.672;6.076;2023-03-31T07:56:16;1.45;;;0.60;;
24137;SDS011;17947;50.672;6.076;2023-03-31T07:58:42;2.45;;;0.85;;
24137;SDS011;17947;50.672;6.076;2023-03-31T08:01:09;1.13;;;0.40;;
24137;SDS011;17947;50.672;6.076;2023-03-31T08:03:40;1.02;;;0.50;;
24137;SDS011;17947;50.672;6.076;2023-03-31T08:06:06;1.73;;;0.50;;
24137;SDS011;17947;50.672;6.076;2023-03-31T08:08:32;1.00;;;0.52;;
24137;SDS011;17947;50.672;6.076;2023-03-31T08:10:58;0.82;;;0.60;;
24137;SDS011;17947;50.672;6.076;2023-03-31T08:13:24;1.35;;;0.77;;
24137;SDS011;17947;50.672;6.076;2023-03-31T08:15:51;1.67;;;0.70;;
24137;SDS011;17947;50.672;6.076;2023-03-31T08:18:17;0.90;;;0.75;;
24137;SDS011;17947;50.672;6.076;2023-03-31T08:20:43;3.05;;;0.90;;
24137;SDS011;17947;50.672;6.076;2023-03-31T08:23:09;2.30;;;0.77;;
24137;SDS011;17947;50.672;6.076;2023-03-31T08:25:36;1.63;;;0.50;;
24137;SDS011;17947;50.672;6.076;2023-03-31T08:28:02;1.92;;;0.80;;
24137;SDS011;17947;50.672;6.076;2023-03-31T08:30:28;1.67;;;0.88;;
24137;SDS011;17947;50.672;6.076;2023-03-31T08:32:54;2.20;;;0.80;;
24137;SDS011;17947;50.672;6.076;2023-03-31T08:35:20;1.25;;;0.70;;
24137;SDS011;17947;50.672;6.076;2023-03-31T08:37:46;1.35;;;0.70;;
24137;SDS011;17947;50.672;6.076;2023-03-31T08:40:14;2.28;;;0.80;;
24137;SDS011;17947;50.672;6.076;2023-03-31T08:42:45;1.55;;;0.75;;
24137;SDS011;17947;50.672;6.076;2023-03-31T08:45:25;1.13;;;0.60;;
24137;SDS011;17947;50.672;6.076;2023-03-31T08:47:53;2.17;;;0.80;;
24137;SDS011;17947;50.672;6.076;2023-03-31T08:50:26;1.35;;;0.70;;
24137;SDS011;17947;50.672;6.076;2023-03-31T08:52:58;1.48;;;0.63;;
24137;SDS011;17947;50.672;6.076;2023-03-31T08:55:30;1.40;;;0.60;;
24137;SDS011;17947;50.672;6.076;2023-03-31T09:00:54;1.42;;;0.75;;
24137;SDS011;17947;50.672;6.076;2023-03-31T09:03:24;2.05;;;0.70;;
24137;SDS011;17947;50.672;6.076;2023-03-31T09:05:59;2.47;;;0.82;;
24137;SDS011;17947;50.672;6.076;2023-03-31T09:08:47;1.17;;;0.70;;
24137;SDS011;17947;50.672;6.076;2023-03-31T09:11:13;1.40;;;0.85;;
24137;SDS011;17947;50.672;6.076;2023-03-31T09:13:48;1.95;;;0.85;;
24137;SDS011;17947;50.672;6.076;2023-03-31T09:18:46;1.58;;;0.70;;
24137;SDS011;17947;50.672;6.076;2023-03-31T09:21:31;2.25;;;0.93;;
24137;SDS011;17947;50.672;6.076;2023-03-31T09:24:03;2.95;;;1.08;;
24137;SDS011;17947;50.672;6.076;2023-03-31T09:29:17;0.57;;;0.55;;
24137;SDS011;17947;50.672;6.076;2023-03-31T09:31:45;1.55;;;0.75;;
24137;SDS011;17947;50.672;6.076;2023-03-31T09:34:14;1.95;;;1.10;;
24137;SDS011;17947;50.672;6.076;2023-03-31T09:36:41;2.75;;;0.80;;
24137;SDS011;17947;50.672;6.076;2023-03-31T09:39:10;1.10;;;0.68;;
24137;SDS011;17947;50.672;6.076;2023-03-31T09:41:37;1.73;;;0.70;;
24137;SDS011;17947;50.672;6.076;2023-03-31T09:44:03;1.80;;;0.90;;
24137;SDS011;17947;50.672;6.076;2023-03-31T09:46:30;1.63;;;0.80;;
24137;SDS011;17947;50.672;6.076;2023-03-31T09:49:11;2.63;;;1.05;;
24137;SDS011;17947;50.672;6.076;2023-03-31T09:51:40;2.53;;;0.93;;
24137;SDS011;17947;50.672;6.076;2023-03-31T09:56:53;2.85;;;0.88;;
24137;SDS011;17947;50.672;6.076;2023-03-31T09:59:20;2.38;;;0.90;;
24137;SDS011;17947;50.672;6.076;2023-03-31T10:01:51;3.17;;;0.93;;
24137;SDS011;17947;50.672;6.076;2023-03-31T10:04:24;1.30;;;0.70;;
24137;SDS011;17947;50.672;6.076;2023-03-31T10:06:51;3.00;;;0.88;;
24137;SDS011;17947;50.672;6.076;2023-03-31T10:09:18;1.23;;;0.75;;
24137;SDS011;17947;50.672;6.076;2023-03-31T10:14:41;2.58;;;1.00;;
24137;SDS011;17947;50.672;6.076;2023-03-31T10:17:12;2.40;;;0.82;;
24137;SDS011;17947;50.672;6.076;2023-03-31T10:19:42;1.48;;;1.00;;
24137;SDS011;17947;50.672;6.076;2023-03-31T10:22:15;2.75;;;0.95;;
24137;SDS011;17947;50.672;6.076;2023-03-31T10:24:42;1.60;;;0.80;;
24137;SDS011;17947;50.672;6.076;2023-03-31T10:27:22;3.40;;;1.00;;
24137;SDS011;17947;50.672;6.076;2023-03-31T10:29:56;1.10;;;0.70;;
24137;SDS011;17947;50.672;6.076;2023-03-31T10:32:23;2.60;;;0.80;;
24137;SDS011;17947;50.672;6.076;2023-03-31T10:34:52;2.47;;;0.90;;
24137;SDS011;17947;50.672;6.076;2023-03-31T10:37:20;2.90;;;1.27;;
24137;SDS011;17947;50.672;6.076;2023-03-31T10:39:47;2.33;;;0.90;;
24137;SDS011;17947;50.672;6.076;2023-03-31T10:42:21;1.88;;;0.68;;
24137;SDS011;17947;50.672;6.076;2023-03-31T10:44:48;2.10;;;1.00;;
24137;SDS011;17947;50.672;6.076;2023-03-31T10:49:40;1.65;;;0.80;;
24137;SDS011;17947;50.672;6.076;2023-03-31T10:52:17;2.03;;;0.85;;
24137;SDS011;17947;50.672;6.076;2023-03-31T10:54:52;2.47;;;0.80;;
24137;SDS011;17947;50.672;6.076;2023-03-31T10:57:22;1.55;;;0.70;;
24137;SDS011;17947;50.672;6.076;2023-03-31T11:12:32;3.63;;;1.00;;
24137;SDS011;17947;50.672;6.076;2023-03-31T11:15:50;1.60;;;0.73;;
24137;SDS011;17947;50.672;6.076;2023-03-31T11:30:39;3.25;;;1.00;;
24137;SDS011;17947;50.672;6.076;2023-03-31T11:33:29;2.03;;;0.90;;
24137;SDS011;17947;50.672;6.076;2023-03-31T11:36:06;2.40;;;0.80;;
24137;SDS011;17947;50.672;6.076;2023-03-31T11:38:46;3.28;;;0.93;;
24137;SDS011;17947;50.672;6.076;2023-03-31T11:41:19;2.17;;;1.00;;
24137;SDS011;17947;50.672;6.076;2023-03-31T11:43:48;4.60;;;1.17;;
24137;SDS011;17947;50.672;6.076;2023-03-31T11:46:22;2.63;;;1.10;;
24137;SDS011;17947;50.672;6.076;2023-03-31T11:49:03;4.40;;;1.35;;
24137;SDS011;17947;50.672;6.076;2023-03-31T11:51:31;4.80;;;1.20;;
24137;SDS011;17947;50.672;6.076;2023-03-31T11:54:02;2.22;;;0.80;;
24137;SDS011;17947;50.672;6.076;2023-03-31T11:56:36;6.70;;;1.17;;
24137;SDS011;17947;50.672;6.076;2023-03-31T11:59:03;1.25;;;0.82;;
24137;SDS011;17947;50.672;6.076;2023-03-31T12:01:32;3.63;;;1.33;;
24137;SDS011;17947;50.672;6.076;2023-03-31T12:06:31;3.28;;;1.05;;
24137;SDS011;17947;50.672;6.076;2023-03-31T12:14:21;2.30;;;0.95;;
24137;SDS011;17947;50.672;6.076;2023-03-31T12:16:51;2.85;;;0.80;;
24137;SDS011;17947;50.672;6.076;2023-03-31T12:24:36;4.13;;;1.10;;
24137;SDS011;17947;50.672;6.076;2023-03-31T12:29:50;3.85;;;1.33;;
24137;SDS011;17947;50.672;6.076;2023-03-31T12:32:22;5.82;;;1.00;;
24137;SDS011;17947;50.672;6.076;2023-03-31T12:34:56;2.95;;;1.10;;
24137;SDS011;17947;50.672;6.076;2023-03-31T12:39:54;3.25;;;0.88;;
24137;SDS011;17947;50.672;6.076;2023-03-31T12:42:37;3.20;;;1.20;;
24137;SDS011;17947;50.672;6.076;2023-03-31T12:55:23;2.10;;;0.85;;
24137;SDS011;17947;50.672;6.076;2023-03-31T12:58:05;4.93;;;1.33;;
24137;SDS011;17947;50.672;6.076;2023-03-31T13:00:48;2.10;;;0.80;;
24137;SDS011;17947;50.672;6.076;2023-03-31T13:11:33;2.88;;;0.90;;
24137;SDS011;17947;50.672;6.076;2023-03-31T13:14:02;2.88;;;1.20;;
24137;SDS011;17947;50.672;6.076;2023-03-31T13:16:32;2.38;;;1.15;;
24137;SDS011;17947;50.672;6.076;2023-03-31T13:18:59;5.57;;;1.23;;
24137;SDS011;17947;50.672;6.076;2023-03-31T13:21:25;3.03;;;0.90;;
24137;SDS011;17947;50.672;6.076;2023-03-31T13:23:51;4.82;;;1.20;;
24137;SDS011;17947;50.672;6.076;2023-03-31T13:35:24;5.13;;;1.30;;
24137;SDS011;17947;50.672;6.076;2023-03-31T13:42:40;2.42;;;0.98;;
24137;SDS011;17947;50.672;6.076;2023-03-31T14:14:04;3.17;;;1.00;;
24137;SDS011;17947;50.672;6.076;2023-03-31T14:16:34;2.75;;;0.82;;
24137;SDS011;17947;50.672;6.076;2023-03-31T14:19:28;1.73;;;0.95;;
24137;SDS011;17947;50.672;6.076;2023-03-31T14:21:49;1.55;;;0.70;;
24137;SDS011;17947;50.672;6.076;2023-03-31T14:24:34;3.72;;;0.90;;
24137;SDS011;17947;50.672;6.076;2023-03-31T14:27:07;3.20;;;0.98;;
24137;SDS011;17947;50.672;6.076;2023-03-31T14:29:48;3.33;;;0.80;;
24137;SDS011;17947;50.672;6.076;2023-03-31T14:37:14;1.77;;;0.70;;
24137;SDS011;17947;50.672;6.076;2023-03-31T14:39:51;2.05;;;1.02;;
24137;SDS011;17947;50.672;6.076;2023-03-31T14:42:21;2.25;;;0.70;;
24137;SDS011;17947;50.672;6.076;2023-03-31T14:44:53;1.33;;;0.80;;
24137;SDS011;17947;50.672;6.076;2023-03-31T14:47:21;1.13;;;0.60;;
24137;SDS011;17947;50.672;6.076;2023-03-31T14:49:47;2.45;;;1.00;;
24137;SDS011;17947;50.672;6.076;2023-03-31T14:52:23;0.75;;;0.65;;
24137;SDS011;17947;50.672;6.076;2023-03-31T14:54:51;1.77;;;0.88;;
24137;SDS011;17947;50.672;6.076;2023-03-31T14:57:19;1.23;;;0.68;;
24137;SDS011;17947;50.672;6.076;2023-03-31T14:59:49;2.50;;;1.00;;
24137;SDS011;17947;50.672;6.076;2023-03-31T15:02:16;1.50;;;0.80;;
24137;SDS011;17947;50.672;6.076;2023-03-31T15:04:45;1.33;;;0.90;;
24137;SDS011;17947;50.672;6.076;2023-03-31T15:07:12;1.67;;;0.70;;
24137;SDS011;17947;50.672;6.076;2023-03-31T15:09:40;3.45;;;1.30;;
24137;SDS011;17947;50.672;6.076;2023-03-31T15:12:11;1.40;;;0.82;;
24137;SDS011;17947;50.672;6.076;2023-03-31T15:14:43;1.63;;;0.75;;
24137;SDS011;17947;50.672;6.076;2023-03-31T15:17:29;2.08;;;0.82;;
24137;SDS011;17947;50.672;6.076;2023-03-31T15:19:59;1.95;;;0.88;;
24137;SDS011;17947;50.672;6.076;2023-03-31T15:22:28;2.08;;;0.82;;
24137;SDS011;17947;50.672;6.076;2023-03-31T15:24:55;2.63;;;1.10;;
24137;SDS011;17947;50.672;6.076;2023-03-31T15:27:35;1.95;;;0.73;;
24137;SDS011;17947;50.672;6.076;2023-03-31T15:30:03;3.83;;;1.45;;
24137;SDS011;17947;50.672;6.076;2023-03-31T15:32:37;1.65;;;0.90;;
24137;SDS011;17947;50.672;6.076;2023-03-31T15:35:04;3.60;;;1.13;;
24137;SDS011;17947;50.672;6.076;2023-03-31T15:37:40;2.03;;;0.90;;
24137;SDS011;17947;50.672;6.076;2023-03-31T15:40:25;1.40;;;0.75;;
24137;SDS011;17947;50.672;6.076;2023-03-31T15:42:54;2.60;;;0.88;;
24137;SDS011;17947;50.672;6.076;2023-03-31T15:48:08;1.65;;;0.82;;
24137;SDS011;17947;50.672;6.076;2023-03-31T15:50:39;1.42;;;0.60;;
24137;SDS011;17947;50.672;6.076;2023-03-31T15:53:26;1.48;;;0.70;;
24137;SDS011;17947;50.672;6.076;2023-03-31T15:55:52;1.45;;;0.70;;
24137;SDS011;17947;50.672;6.076;2023-03-31T15:58:19;2.25;;;1.00;;
24137;SDS011;17947;50.672;6.076;2023-03-31T16:00:52;3.03;;;0.70;;
24137;SDS011;17947;50.672;6.076;2023-03-31T16:03:23;1.48;;;0.80;;
24137;SDS011;17947;50.672;6.076;2023-03-31T16:05:54;1.60;;;0.60;;
24137;SDS011;17947;50.672;6.076;2023-03-31T16:08:40;3.95;;;0.90;;
24137;SDS011;17947;50.672;6.076;2023-03-31T16:11:12;1.50;;;0.80;;
24137;SDS011;17947;50.672;6.076;2023-03-31T16:13:41;1.02;;;0.70;;
24137;SDS011;17947;50.672;6.076;2023-03-31T16:16:08;2.28;;;0.80;;
24137;SDS011;17947;50.672;6.076;2023-03-31T16:18:36;1.92;;;0.70;;
24137;SDS011;17947;50.672;6.076;2023-03-31T16:21:04;1.15;;;0.63;;
24137;SDS011;17947;50.672;6.076;2023-03-31T16:23:32;1.20;;;0.68;;
24137;SDS011;17947;50.672;6.076;2023-03-31T16:26:02;1.00;;;0.60;;
24137;SDS011;17947;50.672;6.076;2023-03-31T16:28:29;2.47;;;0.80;;
24137;SDS011;17947;50.672;6.076;2023-03-31T16:30:56;2.08;;;0.70;;
24137;SDS011;17947;50.672;6.076;2023-03-31T16:33:25;0.85;;;0.60;;
24137;SDS011;17947;50.672;6.076;2023-03-31T16:35:52;1.42;;;0.80;;
24137;SDS011;17947;50.672;6.076;2023-03-31T16:38:26;2.17;;;0.73;;
24137;SDS011;17947;50.672;6.076;2023-03-31T16:40:53;1.25;;;0.70;;
24137;SDS011;17947;50.672;6.076;2023-03-31T16:45:46;2.50;;;0.70;;
24137;SDS011;17947;50.672;6.076;2023-03-31T16:48:13;2.83;;;0.70;;
24137;SDS011;17947;50.672;6.076;2023-03-31T16:50:41;2.45;;;0.77;;
24137;SDS011;17947;50.672;6.076;2023-03-31T16:53:07;1.67;;;0.75;;
24137;SDS011;17947;50.672;6.076;2023-03-31T16:55:33;1.25;;;0.60;;
24137;SDS011;17947;50.672;6.076;2023-03-31T16:57:59;1.33;;;0.70;;
24137;SDS011;17947;50.672;6.076;2023-03-31T17:00:30;1.08;;;0.50;;
24137;SDS011;17947;50.672;6.076;2023-03-31T17:02:58;1.08;;;0.57;;
24137;SDS011;17947;50.672;6.076;2023-03-31T17:05:25;1.00;;;0.65;;
24137;SDS011;17947;50.672;6.076;2023-03-31T17:07:51;1.67;;;0.70;;
24137;SDS011;17947;50.672;6.076;2023-03-31T17:10:17;1.08;;;0.50;;
24137;SDS011;17947;50.672;6.076;2023-03-31T17:12:43;1.65;;;0.63;;
24137;SDS011;17947;50.672;6.076;2023-03-31T17:15:10;0.65;;;0.50;;
24137;SDS011;17947;50.672;6.076;2023-03-31T17:17:36;1.30;;;0.80;;
24137;SDS011;17947;50.672;6.076;2023-03-31T17:20:03;1.75;;;0.82;;
24137;SDS011;17947;50.672;6.076;2023-03-31T17:22:31;1.27;;;0.55;;
24137;SDS011;17947;50.672;6.076;2023-03-31T17:24:57;1.48;;;0.63;;
24137;SDS011;17947;50.672;6.076;2023-03-31T17:27:24;0.90;;;0.60;;
24137;SDS011;17947;50.672;6.076;2023-03-31T17:29:51;2.08;;;0.85;;
24137;SDS011;17947;50.672;6.076;2023-03-31T17:32:17;1.55;;;0.80;;
24137;SDS011;17947;50.672;6.076;2023-03-31T17:34:44;1.20;;;0.73;;
24137;SDS011;17947;50.672;6.076;2023-03-31T17:37:12;1.58;;;0.70;;
24137;SDS011;17947;50.672;6.076;2023-03-31T17:39:38;0.93;;;0.70;;
24137;SDS011;17947;50.672;6.076;2023-03-31T17:42:04;0.75;;;0.70;;
24137;SDS011;17947;50.672;6.076;2023-03-31T17:44:30;1.63;;;0.98;;
24137;SDS011;17947;50.672;6.076;2023-03-31T17:46:56;2.30;;;1.05;;
24137;SDS011;17947;50.672;6.076;2023-03-31T17:49:22;0.95;;;0.70;;
24137;SDS011;17947;50.672;6.076;2023-03-31T17:51:49;2.20;;;0.90;;
24137;SDS011;17947;50.672;6.076;2023-03-31T17:54:17;2.58;;;1.00;;
24137;SDS011;17947;50.672;6.076;2023-03-31T17:56:43;1.58;;;1.08;;
24137;SDS011;17947;50.672;6.076;2023-03-31T17:59:10;1.08;;;0.88;;